Faust, Utah
Current Conditions -  °F | °C
As of 10:48 AM on Friday 21 Nov 2014 (Local Time) from KPVU Reporting Station
Few Clouds Few Clouds  
Wind Chill: 36°   Ceiling: Unl
Heat Index: 36°   Visibility: 15mi
Dew Point: 25°   Wind: 0mph
Humidity: 65%   Direction: NA
Pressure: 30.06"   Gusts: NA
Location:  40.0384°N, 112.37°W
Report Text: KPVU 211748Z 00000KT 15SM FEW120 02/M04 A3006
Loading
Personal Weather Stations






























Interactive Weather Map New forecast layout! Learn more

10-Day Weather Forecast

Advertisements
Track Severe Weather on mobile